sensor_id;sensor_type;location;lat;lon;timestamp;P1;durP1;ratioP1;P2;durP2;ratioP2
13028;SDS011;6581;42.662;23.402;2022-08-01T00:02:31;3.65;;;3.38;;
13028;SDS011;6581;42.662;23.402;2022-08-01T00:04:59;3.58;;;3.33;;
13028;SDS011;6581;42.662;23.402;2022-08-01T00:07:28;3.78;;;3.47;;
13028;SDS011;6581;42.662;23.402;2022-08-01T00:09:55;6.22;;;5.63;;
13028;SDS011;6581;42.662;23.402;2022-08-01T00:12:22;7.72;;;7.13;;
13028;SDS011;6581;42.662;23.402;2022-08-01T00:14:49;7.72;;;7.22;;
13028;SDS011;6581;42.662;23.402;2022-08-01T00:17:16;7.95;;;7.30;;
13028;SDS011;6581;42.662;23.402;2022-08-01T00:19:45;8.63;;;7.93;;
13028;SDS011;6581;42.662;23.402;2022-08-01T00:22:12;8.80;;;8.20;;
13028;SDS011;6581;42.662;23.402;2022-08-01T00:24:40;8.52;;;7.82;;
13028;SDS011;6581;42.662;23.402;2022-08-01T00:27:07;9.00;;;8.40;;
13028;SDS011;6581;42.662;23.402;2022-08-01T00:29:34;8.40;;;7.65;;
13028;SDS011;6581;42.662;23.402;2022-08-01T00:32:01;8.93;;;8.23;;
13028;SDS011;6581;42.662;23.402;2022-08-01T00:34:29;8.40;;;7.80;;
13028;SDS011;6581;42.662;23.402;2022-08-01T00:36:58;8.85;;;8.25;;
13028;SDS011;6581;42.662;23.402;2022-08-01T00:39:25;9.32;;;8.60;;
13028;SDS011;6581;42.662;23.402;2022-08-01T00:41:53;8.68;;;7.97;;
13028;SDS011;6581;42.662;23.402;2022-08-01T00:44:20;8.85;;;8.15;;
13028;SDS011;6581;42.662;23.402;2022-08-01T00:46:47;11.05;;;8.10;;
13028;SDS011;6581;42.662;23.402;2022-08-01T00:49:15;8.73;;;7.93;;
13028;SDS011;6581;42.662;23.402;2022-08-01T00:51:42;8.27;;;7.68;;
13028;SDS011;6581;42.662;23.402;2022-08-01T00:54:11;8.68;;;8.07;;
13028;SDS011;6581;42.662;23.402;2022-08-01T00:56:38;7.82;;;7.22;;
13028;SDS011;6581;42.662;23.402;2022-08-01T00:59:05;8.10;;;7.40;;
13028;SDS011;6581;42.662;23.402;2022-08-01T01:01:33;7.55;;;7.05;;
13028;SDS011;6581;42.662;23.402;2022-08-01T01:04:01;7.57;;;6.97;;
13028;SDS011;6581;42.662;23.402;2022-08-01T01:06:31;7.50;;;6.90;;
13028;SDS011;6581;42.662;23.402;2022-08-01T01:09:15;8.15;;;7.47;;
13028;SDS011;6581;42.662;23.402;2022-08-01T01:11:54;8.05;;;7.43;;
13028;SDS011;6581;42.662;23.402;2022-08-01T01:14:30;7.20;;;6.70;;
13028;SDS011;6581;42.662;23.402;2022-08-01T01:17:03;7.28;;;6.75;;
13028;SDS011;6581;42.662;23.402;2022-08-01T01:19:35;7.25;;;6.75;;
13028;SDS011;6581;42.662;23.402;2022-08-01T01:22:16;6.97;;;6.38;;
13028;SDS011;6581;42.662;23.402;2022-08-01T01:24:52;6.80;;;6.38;;
13028;SDS011;6581;42.662;23.402;2022-08-01T01:27:34;7.43;;;6.72;;
13028;SDS011;6581;42.662;23.402;2022-08-01T01:30:11;6.93;;;6.43;;
13028;SDS011;6581;42.662;23.402;2022-08-01T01:32:39;7.20;;;6.60;;
13028;SDS011;6581;42.662;23.402;2022-08-01T01:35:14;8.38;;;7.70;;
13028;SDS011;6581;42.662;23.402;2022-08-01T01:37:46;9.63;;;8.93;;
13028;SDS011;6581;42.662;23.402;2022-08-01T01:40:16;9.80;;;8.90;;
13028;SDS011;6581;42.662;23.402;2022-08-01T01:42:46;9.45;;;8.65;;
13028;SDS011;6581;42.662;23.402;2022-08-01T01:45:16;9.98;;;9.05;;
13028;SDS011;6581;42.662;23.402;2022-08-01T01:47:45;9.55;;;8.95;;
13028;SDS011;6581;42.662;23.402;2022-08-01T01:50:13;9.50;;;8.73;;
13028;SDS011;6581;42.662;23.402;2022-08-01T01:53:06;9.77;;;8.93;;
13028;SDS011;6581;42.662;23.402;2022-08-01T01:55:36;10.10;;;9.30;;
13028;SDS011;6581;42.662;23.402;2022-08-01T01:58:05;9.40;;;8.60;;
13028;SDS011;6581;42.662;23.402;2022-08-01T02:00:36;9.30;;;8.55;;
13028;SDS011;6581;42.662;23.402;2022-08-01T02:03:05;10.25;;;9.35;;
13028;SDS011;6581;42.662;23.402;2022-08-01T02:05:35;9.43;;;8.65;;
13028;SDS011;6581;42.662;23.402;2022-08-01T02:08:04;9.90;;;9.00;;
13028;SDS011;6581;42.662;23.402;2022-08-01T02:10:34;9.52;;;8.68;;
13028;SDS011;6581;42.662;23.402;2022-08-01T02:13:03;9.25;;;8.55;;
13028;SDS011;6581;42.662;23.402;2022-08-01T02:15:32;8.98;;;8.23;;
13028;SDS011;6581;42.662;23.402;2022-08-01T02:18:05;9.45;;;8.68;;
13028;SDS011;6581;42.662;23.402;2022-08-01T02:20:34;9.60;;;8.70;;
13028;SDS011;6581;42.662;23.402;2022-08-01T02:23:06;9.50;;;8.70;;
13028;SDS011;6581;42.662;23.402;2022-08-01T02:25:38;8.90;;;8.20;;
13028;SDS011;6581;42.662;23.402;2022-08-01T02:28:10;9.82;;;9.02;;
13028;SDS011;6581;42.662;23.402;2022-08-01T02:30:41;10.02;;;9.02;;
13028;SDS011;6581;42.662;23.402;2022-08-01T02:33:14;8.95;;;8.15;;
13028;SDS011;6581;42.662;23.402;2022-08-01T02:35:46;8.90;;;8.20;;
13028;SDS011;6581;42.662;23.402;2022-08-01T02:38:41;8.57;;;7.90;;
13028;SDS011;6581;42.662;23.402;2022-08-01T02:41:12;8.57;;;7.47;;
13028;SDS011;6581;42.662;23.402;2022-08-01T02:43:48;8.27;;;7.57;;
13028;SDS011;6581;42.662;23.402;2022-08-01T02:46:21;8.15;;;7.35;;
13028;SDS011;6581;42.662;23.402;2022-08-01T02:48:53;7.40;;;6.13;;
13028;SDS011;6581;42.662;23.402;2022-08-01T02:51:25;7.35;;;6.63;;
13028;SDS011;6581;42.662;23.402;2022-08-01T02:53:55;8.18;;;7.10;;
13028;SDS011;6581;42.662;23.402;2022-08-01T02:56:24;8.10;;;7.30;;
13028;SDS011;6581;42.662;23.402;2022-08-01T02:59:00;7.88;;;7.03;;
13028;SDS011;6581;42.662;23.402;2022-08-01T03:01:31;8.88;;;7.85;;
13028;SDS011;6581;42.662;23.402;2022-08-01T03:04:02;8.50;;;7.68;;
13028;SDS011;6581;42.662;23.402;2022-08-01T03:06:30;8.48;;;7.78;;
13028;SDS011;6581;42.662;23.402;2022-08-01T03:08:58;10.43;;;9.20;;
13028;SDS011;6581;42.662;23.402;2022-08-01T03:11:28;10.00;;;8.65;;
13028;SDS011;6581;42.662;23.402;2022-08-01T03:13:56;9.20;;;8.40;;
13028;SDS011;6581;42.662;23.402;2022-08-01T03:16:53;9.20;;;8.40;;
13028;SDS011;6581;42.662;23.402;2022-08-01T03:19:24;9.90;;;9.00;;
13028;SDS011;6581;42.662;23.402;2022-08-01T03:21:54;9.63;;;8.93;;
13028;SDS011;6581;42.662;23.402;2022-08-01T03:24:24;9.93;;;9.05;;
13028;SDS011;6581;42.662;23.402;2022-08-01T03:26:53;10.82;;;9.40;;
13028;SDS011;6581;42.662;23.402;2022-08-01T03:29:24;10.35;;;9.43;;
13028;SDS011;6581;42.662;23.402;2022-08-01T03:31:55;9.50;;;8.70;;
13028;SDS011;6581;42.662;23.402;2022-08-01T03:34:25;9.40;;;8.70;;
13028;SDS011;6581;42.662;23.402;2022-08-01T03:36:54;9.27;;;8.38;;
13028;SDS011;6581;42.662;23.402;2022-08-01T03:39:28;9.63;;;8.73;;
13028;SDS011;6581;42.662;23.402;2022-08-01T03:42:01;13.98;;;9.40;;
13028;SDS011;6581;42.662;23.402;2022-08-01T03:44:33;9.93;;;8.90;;
13028;SDS011;6581;42.662;23.402;2022-08-01T03:47:05;10.65;;;8.73;;
13028;SDS011;6581;42.662;23.402;2022-08-01T03:49:40;8.93;;;8.07;;
13028;SDS011;6581;42.662;23.402;2022-08-01T03:52:09;8.05;;;6.80;;
13028;SDS011;6581;42.662;23.402;2022-08-01T03:54:40;6.53;;;5.40;;
13028;SDS011;6581;42.662;23.402;2022-08-01T03:57:11;8.38;;;5.32;;
13028;SDS011;6581;42.662;23.402;2022-08-01T03:59:39;8.57;;;5.20;;
13028;SDS011;6581;42.662;23.402;2022-08-01T04:02:08;6.70;;;4.50;;
13028;SDS011;6581;42.662;23.402;2022-08-01T04:04:37;4.70;;;4.30;;
13028;SDS011;6581;42.662;23.402;2022-08-01T04:07:04;9.60;;;6.72;;
13028;SDS011;6581;42.662;23.402;2022-08-01T04:09:34;7.00;;;6.32;;
13028;SDS011;6581;42.662;23.402;2022-08-01T04:12:01;9.80;;;8.80;;
13028;SDS011;6581;42.662;23.402;2022-08-01T04:14:29;17.15;;;14.95;;
13028;SDS011;6581;42.662;23.402;2022-08-01T04:16:56;21.75;;;14.98;;
13028;SDS011;6581;42.662;23.402;2022-08-01T04:19:24;37.72;;;26.63;;
13028;SDS011;6581;42.662;23.402;2022-08-01T04:21:52;69.15;;;52.45;;
13028;SDS011;6581;42.662;23.402;2022-08-01T04:24:20;42.13;;;30.42;;
13028;SDS011;6581;42.662;23.402;2022-08-01T04:26:49;11.95;;;9.82;;
13028;SDS011;6581;42.662;23.402;2022-08-01T04:29:17;19.55;;;16.00;;
13028;SDS011;6581;42.662;23.402;2022-08-01T04:31:47;10.27;;;8.45;;
13028;SDS011;6581;42.662;23.402;2022-08-01T04:34:17;9.10;;;7.47;;
13028;SDS011;6581;42.662;23.402;2022-08-01T04:36:48;11.77;;;8.88;;
13028;SDS011;6581;42.662;23.402;2022-08-01T04:39:20;8.15;;;7.35;;
13028;SDS011;6581;42.662;23.402;2022-08-01T04:41:52;30.00;;;24.83;;
13028;SDS011;6581;42.662;23.402;2022-08-01T04:44:21;7.88;;;7.10;;
13028;SDS011;6581;42.662;23.402;2022-08-01T04:46:49;7.80;;;7.03;;
13028;SDS011;6581;42.662;23.402;2022-08-01T04:49:19;7.65;;;6.80;;
13028;SDS011;6581;42.662;23.402;2022-08-01T04:51:50;7.88;;;6.50;;
13028;SDS011;6581;42.662;23.402;2022-08-01T04:54:24;11.88;;;7.70;;
13028;SDS011;6581;42.662;23.402;2022-08-01T04:56:54;8.27;;;7.40;;
13028;SDS011;6581;42.662;23.402;2022-08-01T04:59:25;9.73;;;7.90;;
13028;SDS011;6581;42.662;23.402;2022-08-01T05:02:08;8.27;;;7.40;;
13028;SDS011;6581;42.662;23.402;2022-08-01T05:04:37;9.30;;;8.07;;
13028;SDS011;6581;42.662;23.402;2022-08-01T05:07:05;10.00;;;7.28;;
13028;SDS011;6581;42.662;23.402;2022-08-01T05:09:35;8.05;;;7.25;;
13028;SDS011;6581;42.662;23.402;2022-08-01T05:12:03;10.35;;;7.32;;
13028;SDS011;6581;42.662;23.402;2022-08-01T05:14:32;8.90;;;7.03;;
13028;SDS011;6581;42.662;23.402;2022-08-01T05:17:01;7.78;;;7.07;;
13028;SDS011;6581;42.662;23.402;2022-08-01T05:19:30;11.10;;;7.40;;
13028;SDS011;6581;42.662;23.402;2022-08-01T05:21:58;11.70;;;7.20;;
13028;SDS011;6581;42.662;23.402;2022-08-01T05:24:26;12.88;;;7.07;;
13028;SDS011;6581;42.662;23.402;2022-08-01T05:26:56;9.10;;;7.45;;
13028;SDS011;6581;42.662;23.402;2022-08-01T05:29:24;10.50;;;7.65;;
13028;SDS011;6581;42.662;23.402;2022-08-01T05:31:52;8.07;;;6.43;;
13028;SDS011;6581;42.662;23.402;2022-08-01T05:34:19;8.40;;;5.93;;
13028;SDS011;6581;42.662;23.402;2022-08-01T05:36:47;7.45;;;5.85;;
13028;SDS011;6581;42.662;23.402;2022-08-01T05:39:14;9.30;;;5.55;;
13028;SDS011;6581;42.662;23.402;2022-08-01T05:41:42;8.68;;;6.05;;
13028;SDS011;6581;42.662;23.402;2022-08-01T05:44:10;5.70;;;5.15;;
13028;SDS011;6581;42.662;23.402;2022-08-01T05:46:38;7.00;;;5.10;;
13028;SDS011;6581;42.662;23.402;2022-08-01T05:49:05;9.45;;;4.60;;
13028;SDS011;6581;42.662;23.402;2022-08-01T05:51:57;8.18;;;4.63;;
13028;SDS011;6581;42.662;23.402;2022-08-01T05:54:26;5.45;;;4.32;;
13028;SDS011;6581;42.662;23.402;2022-08-01T05:56:53;5.18;;;4.20;;
13028;SDS011;6581;42.662;23.402;2022-08-01T05:59:26;5.75;;;4.10;;
13028;SDS011;6581;42.662;23.402;2022-08-01T06:01:53;4.78;;;3.97;;
13028;SDS011;6581;42.662;23.402;2022-08-01T06:04:20;5.65;;;4.25;;
13028;SDS011;6581;42.662;23.402;2022-08-01T06:06:48;4.53;;;4.10;;
13028;SDS011;6581;42.662;23.402;2022-08-01T06:09:15;4.45;;;3.85;;
13028;SDS011;6581;42.662;23.402;2022-08-01T06:11:42;4.05;;;3.75;;
13028;SDS011;6581;42.662;23.402;2022-08-01T06:14:09;4.75;;;3.80;;
13028;SDS011;6581;42.662;23.402;2022-08-01T06:16:38;7.05;;;3.88;;
13028;SDS011;6581;42.662;23.402;2022-08-01T06:19:05;4.57;;;3.70;;
13028;SDS011;6581;42.662;23.402;2022-08-01T06:21:32;5.18;;;3.78;;
13028;SDS011;6581;42.662;23.402;2022-08-01T06:23:59;4.05;;;3.40;;
13028;SDS011;6581;42.662;23.402;2022-08-01T06:26:26;5.90;;;3.30;;
13028;SDS011;6581;42.662;23.402;2022-08-01T06:28:54;3.72;;;3.42;;
13028;SDS011;6581;42.662;23.402;2022-08-01T06:31:21;4.35;;;3.00;;
13028;SDS011;6581;42.662;23.402;2022-08-01T06:34:13;3.28;;;2.97;;
13028;SDS011;6581;42.662;23.402;2022-08-01T06:36:41;3.45;;;3.00;;
13028;SDS011;6581;42.662;23.402;2022-08-01T06:42:00;3.95;;;3.40;;
13028;SDS011;6581;42.662;23.402;2022-08-01T06:44:27;2.83;;;2.50;;
13028;SDS011;6581;42.662;23.402;2022-08-01T06:46:54;4.72;;;2.92;;
13028;SDS011;6581;42.662;23.402;2022-08-01T06:49:25;4.28;;;2.80;;
13028;SDS011;6581;42.662;23.402;2022-08-01T06:51:52;5.22;;;2.80;;
13028;SDS011;6581;42.662;23.402;2022-08-01T06:54:19;3.25;;;2.95;;
13028;SDS011;6581;42.662;23.402;2022-08-01T06:56:46;4.00;;;2.90;;
13028;SDS011;6581;42.662;23.402;2022-08-01T06:59:13;3.22;;;2.92;;
13028;SDS011;6581;42.662;23.402;2022-08-01T07:01:41;2.90;;;2.70;;
13028;SDS011;6581;42.662;23.402;2022-08-01T07:07:02;3.30;;;3.03;;
13028;SDS011;6581;42.662;23.402;2022-08-01T07:09:30;3.75;;;2.83;;
13028;SDS011;6581;42.662;23.402;2022-08-01T07:11:57;3.80;;;2.80;;
13028;SDS011;6581;42.662;23.402;2022-08-01T07:14:24;5.20;;;3.35;;
13028;SDS011;6581;42.662;23.402;2022-08-01T07:16:51;3.67;;;3.28;;
13028;SDS011;6581;42.662;23.402;2022-08-01T07:19:44;3.40;;;3.10;;
13028;SDS011;6581;42.662;23.402;2022-08-01T07:22:12;3.60;;;3.30;;
13028;SDS011;6581;42.662;23.402;2022-08-01T07:24:40;3.53;;;3.22;;
13028;SDS011;6581;42.662;23.402;2022-08-01T07:27:07;5.22;;;3.47;;
13028;SDS011;6581;42.662;23.402;2022-08-01T07:29:34;3.47;;;3.20;;
13028;SDS011;6581;42.662;23.402;2022-08-01T07:32:02;2.95;;;2.75;;
13028;SDS011;6581;42.662;23.402;2022-08-01T07:34:30;4.25;;;2.92;;
13028;SDS011;6581;42.662;23.402;2022-08-01T07:36:59;3.40;;;3.10;;
13028;SDS011;6581;42.662;23.402;2022-08-01T07:39:26;4.93;;;2.90;;
13028;SDS011;6581;42.662;23.402;2022-08-01T07:41:53;3.25;;;2.80;;
13028;SDS011;6581;42.662;23.402;2022-08-01T07:44:21;3.00;;;2.80;;
13028;SDS011;6581;42.662;23.402;2022-08-01T07:46:48;5.03;;;2.90;;
13028;SDS011;6581;42.662;23.402;2022-08-01T07:49:15;3.10;;;2.80;;
13028;SDS011;6581;42.662;23.402;2022-08-01T07:51:43;3.85;;;2.90;;
13028;SDS011;6581;42.662;23.402;2022-08-01T07:54:15;3.30;;;3.00;;
13028;SDS011;6581;42.662;23.402;2022-08-01T07:56:42;4.28;;;2.92;;
13028;SDS011;6581;42.662;23.402;2022-08-01T07:59:09;3.22;;;3.03;;
13028;SDS011;6581;42.662;23.402;2022-08-01T08:01:37;3.10;;;2.80;;
13028;SDS011;6581;42.662;23.402;2022-08-01T08:04:04;3.60;;;3.30;;
13028;SDS011;6581;42.662;23.402;2022-08-01T08:06:32;5.00;;;3.00;;
13028;SDS011;6581;42.662;23.402;2022-08-01T08:08:59;7.65;;;2.95;;
13028;SDS011;6581;42.662;23.402;2022-08-01T08:11:29;3.38;;;2.97;;
13028;SDS011;6581;42.662;23.402;2022-08-01T08:13:57;4.72;;;3.33;;
13028;SDS011;6581;42.662;23.402;2022-08-01T08:16:25;4.13;;;2.97;;
13028;SDS011;6581;42.662;23.402;2022-08-01T08:18:53;6.18;;;3.17;;
13028;SDS011;6581;42.662;23.402;2022-08-01T08:21:21;4.57;;;3.47;;
13028;SDS011;6581;42.662;23.402;2022-08-01T08:24:13;3.30;;;3.08;;
13028;SDS011;6581;42.662;23.402;2022-08-01T08:26:50;3.85;;;3.40;;
13028;SDS011;6581;42.662;23.402;2022-08-01T08:29:20;5.78;;;3.45;;
13028;SDS011;6581;42.662;23.402;2022-08-01T08:31:48;3.47;;;3.22;;
13028;SDS011;6581;42.662;23.402;2022-08-01T08:34:16;4.13;;;3.08;;
13028;SDS011;6581;42.662;23.402;2022-08-01T08:36:43;4.85;;;3.30;;
13028;SDS011;6581;42.662;23.402;2022-08-01T08:39:10;4.35;;;3.28;;
13028;SDS011;6581;42.662;23.402;2022-08-01T08:41:38;3.38;;;3.03;;
13028;SDS011;6581;42.662;23.402;2022-08-01T08:44:07;3.60;;;3.30;;
13028;SDS011;6581;42.662;23.402;2022-08-01T08:46:37;3.95;;;3.30;;
13028;SDS011;6581;42.662;23.402;2022-08-01T08:49:07;4.95;;;3.30;;
13028;SDS011;6581;42.662;23.402;2022-08-01T08:51:37;3.85;;;3.25;;
13028;SDS011;6581;42.662;23.402;2022-08-01T08:56:59;4.55;;;3.38;;
13028;SDS011;6581;42.662;23.402;2022-08-01T08:59:28;3.15;;;2.72;;
13028;SDS011;6581;42.662;23.402;2022-08-01T09:01:56;3.65;;;2.92;;
13028;SDS011;6581;42.662;23.402;2022-08-01T09:04:24;4.65;;;3.20;;
13028;SDS011;6581;42.662;23.402;2022-08-01T09:06:53;4.00;;;2.88;;
13028;SDS011;6581;42.662;23.402;2022-08-01T09:09:21;3.00;;;2.60;;
13028;SDS011;6581;42.662;23.402;2022-08-01T09:11:49;3.88;;;3.00;;
13028;SDS011;6581;42.662;23.402;2022-08-01T09:14:17;4.75;;;3.00;;
13028;SDS011;6581;42.662;23.402;2022-08-01T09:17:15;3.55;;;3.15;;
13028;SDS011;6581;42.662;23.402;2022-08-01T09:19:43;4.30;;;3.00;;
13028;SDS011;6581;42.662;23.402;2022-08-01T09:22:13;6.70;;;3.22;;
13028;SDS011;6581;42.662;23.402;2022-08-01T09:24:55;3.13;;;2.83;;
13028;SDS011;6581;42.662;23.402;2022-08-01T09:27:24;3.45;;;3.15;;
13028;SDS011;6581;42.662;23.402;2022-08-01T09:29:51;3.97;;;3.10;;
13028;SDS011;6581;42.662;23.402;2022-08-01T09:32:20;2.72;;;2.53;;
13028;SDS011;6581;42.662;23.402;2022-08-01T09:34:48;3.00;;;2.80;;
13028;SDS011;6581;42.662;23.402;2022-08-01T09:37:15;3.20;;;2.90;;
13028;SDS011;6581;42.662;23.402;2022-08-01T09:39:43;3.75;;;2.90;;
13028;SDS011;6581;42.662;23.402;2022-08-01T09:42:22;3.25;;;2.83;;
13028;SDS011;6581;42.662;23.402;2022-08-01T09:44:50;3.40;;;2.60;;
13028;SDS011;6581;42.662;23.402;2022-08-01T09:47:18;4.28;;;2.60;;
13028;SDS011;6581;42.662;23.402;2022-08-01T09:49:56;2.75;;;2.55;;
13028;SDS011;6581;42.662;23.402;2022-08-01T09:52:25;4.05;;;2.63;;
13028;SDS011;6581;42.662;23.402;2022-08-01T09:54:57;2.97;;;2.78;;
13028;SDS011;6581;42.662;23.402;2022-08-01T09:57:25;4.57;;;2.67;;
13028;SDS011;6581;42.662;23.402;2022-08-01T09:59:54;2.85;;;2.63;;
13028;SDS011;6581;42.662;23.402;2022-08-01T10:02:27;3.17;;;2.70;;
13028;SDS011;6581;42.662;23.402;2022-08-01T10:04:58;2.85;;;2.65;;
13028;SDS011;6581;42.662;23.402;2022-08-01T10:07:26;3.55;;;3.22;;
13028;SDS011;6581;42.662;23.402;2022-08-01T10:09:54;3.42;;;3.17;;
13028;SDS011;6581;42.662;23.402;2022-08-01T10:12:22;4.07;;;2.90;;
13028;SDS011;6581;42.662;23.402;2022-08-01T10:14:50;2.92;;;2.72;;
13028;SDS011;6581;42.662;23.402;2022-08-01T10:17:20;3.20;;;3.00;;
13028;SDS011;6581;42.662;23.402;2022-08-01T10:19:51;3.00;;;2.80;;
13028;SDS011;6581;42.662;23.402;2022-08-01T10:22:24;3.40;;;3.10;;
13028;SDS011;6581;42.662;23.402;2022-08-01T10:24:53;3.60;;;3.30;;
13028;SDS011;6581;42.662;23.402;2022-08-01T10:27:22;3.90;;;3.00;;
13028;SDS011;6581;42.662;23.402;2022-08-01T10:29:51;2.90;;;2.70;;
13028;SDS011;6581;42.662;23.402;2022-08-01T10:32:26;3.40;;;3.10;;
13028;SDS011;6581;42.662;23.402;2022-08-01T10:34:53;3.10;;;2.88;;
13028;SDS011;6581;42.662;23.402;2022-08-01T10:37:23;3.70;;;2.97;;
13028;SDS011;6581;42.662;23.402;2022-08-01T10:39:51;3.53;;;3.00;;
13028;SDS011;6581;42.662;23.402;2022-08-01T10:42:19;3.25;;;2.92;;
13028;SDS011;6581;42.662;23.402;2022-08-01T10:44:47;3.78;;;2.92;;
13028;SDS011;6581;42.662;23.402;2022-08-01T10:47:17;3.35;;;2.97;;
13028;SDS011;6581;42.662;23.402;2022-08-01T10:49:49;3.22;;;3.00;;
13028;SDS011;6581;42.662;23.402;2022-08-01T10:55:46;3.00;;;2.80;;
13028;SDS011;6581;42.662;23.402;2022-08-01T10:58:19;3.15;;;2.95;;
13028;SDS011;6581;42.662;23.402;2022-08-01T11:04:08;2.45;;;2.35;;
13028;SDS011;6581;42.662;23.402;2022-08-01T11:06:40;3.22;;;2.88;;
13028;SDS011;6581;42.662;23.402;2022-08-01T11:09:19;2.67;;;2.47;;
13028;SDS011;6581;42.662;23.402;2022-08-01T11:11:58;2.83;;;2.63;;
13028;SDS011;6581;42.662;23.402;2022-08-01T11:14:30;3.22;;;2.92;;
13028;SDS011;6581;42.662;23.402;2022-08-01T11:20:03;4.13;;;3.08;;
13028;SDS011;6581;42.662;23.402;2022-08-01T11:22:31;4.78;;;3.00;;
13028;SDS011;6581;42.662;23.402;2022-08-01T11:24:58;3.08;;;2.88;;
13028;SDS011;6581;42.662;23.402;2022-08-01T11:27:29;3.28;;;2.97;;
13028;SDS011;6581;42.662;23.402;2022-08-01T11:32:55;4.32;;;3.10;;
13028;SDS011;6581;42.662;23.402;2022-08-01T11:35:23;3.10;;;2.80;;
13028;SDS011;6581;42.662;23.402;2022-08-01T11:37:52;3.50;;;3.20;;
13028;SDS011;6581;42.662;23.402;2022-08-01T11:40:23;3.70;;;3.05;;
13028;SDS011;6581;42.662;23.402;2022-08-01T11:45:49;4.82;;;2.95;;
13028;SDS011;6581;42.662;23.402;2022-08-01T11:48:19;3.50;;;2.65;;
13028;SDS011;6581;42.662;23.402;2022-08-01T11:50:48;3.17;;;2.97;;
13028;SDS011;6581;42.662;23.402;2022-08-01T11:53:17;3.33;;;3.13;;
13028;SDS011;6581;42.662;23.402;2022-08-01T11:55:45;3.33;;;3.03;;
13028;SDS011;6581;42.662;23.402;2022-08-01T11:58:16;3.00;;;2.80;;
13028;SDS011;6581;42.662;23.402;2022-08-01T12:00:49;3.17;;;2.97;;
13028;SDS011;6581;42.662;23.402;2022-08-01T12:03:22;3.15;;;2.90;;
13028;SDS011;6581;42.662;23.402;2022-08-01T12:05:52;3.33;;;3.10;;
13028;SDS011;6581;42.662;23.402;2022-08-01T12:08:26;3.45;;;2.97;;
13028;SDS011;6581;42.662;23.402;2022-08-01T12:10:54;3.20;;;3.00;;
13028;SDS011;6581;42.662;23.402;2022-08-01T12:13:23;3.35;;;3.15;;
13028;SDS011;6581;42.662;23.402;2022-08-01T12:15:50;3.25;;;3.00;;
13028;SDS011;6581;42.662;23.402;2022-08-01T12:18:18;3.63;;;3.40;;
13028;SDS011;6581;42.662;23.402;2022-08-01T12:23:38;5.22;;;3.40;;
13028;SDS011;6581;42.662;23.402;2022-08-01T12:26:06;4.10;;;3.60;;
13028;SDS011;6581;42.662;23.402;2022-08-01T12:28:39;3.38;;;3.17;;
13028;SDS011;6581;42.662;23.402;2022-08-01T12:31:07;3.78;;;3.22;;
13028;SDS011;6581;42.662;23.402;2022-08-01T12:33:34;4.15;;;3.65;;
13028;SDS011;6581;42.662;23.402;2022-08-01T12:36:01;3.63;;;3.33;;
13028;SDS011;6581;42.662;23.402;2022-08-01T12:38:28;3.92;;;3.60;;
13028;SDS011;6581;42.662;23.402;2022-08-01T12:41:23;3.50;;;3.30;;
13028;SDS011;6581;42.662;23.402;2022-08-01T12:43:53;3.85;;;3.55;;
13028;SDS011;6581;42.662;23.402;2022-08-01T12:46:21;3.83;;;3.63;;
13028;SDS011;6581;42.662;23.402;2022-08-01T12:48:48;3.83;;;3.50;;
13028;SDS011;6581;42.662;23.402;2022-08-01T12:51:16;3.70;;;3.40;;
13028;SDS011;6581;42.662;23.402;2022-08-01T12:53:43;3.83;;;3.58;;
13028;SDS011;6581;42.662;23.402;2022-08-01T12:56:11;3.50;;;3.20;;
13028;SDS011;6581;42.662;23.402;2022-08-01T12:58:40;4.78;;;3.80;;
13028;SDS011;6581;42.662;23.402;2022-08-01T13:01:09;3.83;;;3.53;;
13028;SDS011;6581;42.662;23.402;2022-08-01T13:03:38;4.90;;;3.65;;
13028;SDS011;6581;42.662;23.402;2022-08-01T13:06:10;3.67;;;3.45;;
13028;SDS011;6581;42.662;23.402;2022-08-01T13:08:39;3.80;;;3.47;;
13028;SDS011;6581;42.662;23.402;2022-08-01T13:11:07;3.63;;;3.33;;
13028;SDS011;6581;42.662;23.402;2022-08-01T13:13:40;3.97;;;3.40;;
13028;SDS011;6581;42.662;23.402;2022-08-01T13:16:10;4.10;;;3.42;;
13028;SDS011;6581;42.662;23.402;2022-08-01T13:18:38;3.70;;;3.50;;
13028;SDS011;6581;42.662;23.402;2022-08-01T13:21:09;3.90;;;3.60;;
13028;SDS011;6581;42.662;23.402;2022-08-01T13:23:38;3.40;;;3.20;;
13028;SDS011;6581;42.662;23.402;2022-08-01T13:26:05;3.40;;;3.20;;
13028;SDS011;6581;42.662;23.402;2022-08-01T13:28:33;3.53;;;3.20;;
13028;SDS011;6581;42.662;23.402;2022-08-01T13:31:03;3.63;;;3.40;;
13028;SDS011;6581;42.662;23.402;2022-08-01T13:33:41;3.58;;;3.25;;
13028;SDS011;6581;42.662;23.402;2022-08-01T13:36:10;3.47;;;3.22;;
13028;SDS011;6581;42.662;23.402;2022-08-01T13:38:37;3.60;;;3.30;;
13028;SDS011;6581;42.662;23.402;2022-08-01T13:41:22;3.45;;;3.25;;
13028;SDS011;6581;42.662;23.402;2022-08-01T13:43:49;4.60;;;3.45;;
13028;SDS011;6581;42.662;23.402;2022-08-01T13:46:16;3.60;;;3.08;;
13028;SDS011;6581;42.662;23.402;2022-08-01T13:48:45;6.63;;;3.15;;
13028;SDS011;6581;42.662;23.402;2022-08-01T13:51:12;4.13;;;3.20;;
13028;SDS011;6581;42.662;23.402;2022-08-01T13:53:40;3.65;;;3.35;;
13028;SDS011;6581;42.662;23.402;2022-08-01T13:56:07;3.40;;;3.10;;
13028;SDS011;6581;42.662;23.402;2022-08-01T13:58:34;3.78;;;3.47;;
13028;SDS011;6581;42.662;23.402;2022-08-01T14:01:01;3.88;;;3.53;;
13028;SDS011;6581;42.662;23.402;2022-08-01T14:03:29;3.55;;;3.30;;
13028;SDS011;6581;42.662;23.402;2022-08-01T14:05:58;3.60;;;3.30;;
13028;SDS011;6581;42.662;23.402;2022-08-01T14:08:25;3.47;;;3.20;;
13028;SDS011;6581;42.662;23.402;2022-08-01T14:10:52;3.47;;;3.13;;
13028;SDS011;6581;42.662;23.402;2022-08-01T14:13:22;3.35;;;3.15;;
13028;SDS011;6581;42.662;23.402;2022-08-01T14:15:50;3.85;;;3.10;;
13028;SDS011;6581;42.662;23.402;2022-08-01T14:18:17;3.28;;;2.97;;
13028;SDS011;6581;42.662;23.402;2022-08-01T14:20:45;4.85;;;3.05;;
13028;SDS011;6581;42.662;23.402;2022-08-01T14:23:13;3.10;;;2.90;;
13028;SDS011;6581;42.662;23.402;2022-08-01T14:25:41;3.75;;;3.30;;
13028;SDS011;6581;42.662;23.402;2022-08-01T14:28:08;3.58;;;3.15;;
13028;SDS011;6581;42.662;23.402;2022-08-01T14:30:36;3.75;;;3.45;;
13028;SDS011;6581;42.662;23.402;2022-08-01T14:33:04;3.40;;;3.20;;
13028;SDS011;6581;42.662;23.402;2022-08-01T14:35:31;3.47;;;3.17;;
13028;SDS011;6581;42.662;23.402;2022-08-01T14:37:58;3.10;;;2.80;;
13028;SDS011;6581;42.662;23.402;2022-08-01T14:40:27;3.30;;;3.10;;
13028;SDS011;6581;42.662;23.402;2022-08-01T14:42:54;4.25;;;3.10;;
13028;SDS011;6581;42.662;23.402;2022-08-01T14:45:21;2.90;;;2.70;;
13028;SDS011;6581;42.662;23.402;2022-08-01T14:47:49;6.65;;;4.13;;
13028;SDS011;6581;42.662;23.402;2022-08-01T14:50:17;7.82;;;7.07;;
13028;SDS011;6581;42.662;23.402;2022-08-01T14:52:44;3.88;;;3.08;;
13028;SDS011;6581;42.662;23.402;2022-08-01T14:55:12;3.05;;;2.90;;
13028;SDS011;6581;42.662;23.402;2022-08-01T14:57:40;12.98;;;9.95;;
13028;SDS011;6581;42.662;23.402;2022-08-01T15:00:08;8.68;;;7.88;;
13028;SDS011;6581;42.662;23.402;2022-08-01T15:02:38;3.42;;;3.22;;
13028;SDS011;6581;42.662;23.402;2022-08-01T15:05:30;3.13;;;2.92;;
13028;SDS011;6581;42.662;23.402;2022-08-01T15:07:58;4.10;;;2.85;;
13028;SDS011;6581;42.662;23.402;2022-08-01T15:10:26;3.50;;;3.20;;
13028;SDS011;6581;42.662;23.402;2022-08-01T15:12:55;2.83;;;2.63;;
13028;SDS011;6581;42.662;23.402;2022-08-01T15:15:24;3.28;;;2.78;;
13028;SDS011;6581;42.662;23.402;2022-08-01T15:18:16;5.90;;;5.30;;
13028;SDS011;6581;42.662;23.402;2022-08-01T15:20:43;4.45;;;3.80;;
13028;SDS011;6581;42.662;23.402;2022-08-01T15:23:11;5.45;;;4.97;;
13028;SDS011;6581;42.662;23.402;2022-08-01T15:25:39;3.08;;;2.88;;
13028;SDS011;6581;42.662;23.402;2022-08-01T15:28:07;2.70;;;2.60;;
13028;SDS011;6581;42.662;23.402;2022-08-01T15:30:35;6.78;;;3.00;;